Airport View

Enter ICAO identifier to see the current METAR for that AWOS.

KFNL for example

KPIT 010351Z 21005KT 8SM BKN250 17/15 A2985

1 Jul 2015 04:41

Phone: 412-472-0145

Other Area AWOS: KHLG - KUCP - KLBE

TAF AMD KPIT 010305Z 0103/0206 22005KT P6SM SCT250 FM010900 25003KT 5SM BR BKN015 FM011600 27010KT P6SM BKN035 FM012000 30010KT P6SM SCT040